createdAt,value
2022-11-30T00:01:25.907Z,11.00
2022-11-30T00:06:30.011Z,9.50
2022-11-30T00:11:33.842Z,10.00
2022-11-30T00:16:36.692Z,11.50
2022-11-30T00:21:40.993Z,11.00
2022-11-30T00:26:44.459Z,11.25
2022-11-30T00:31:47.446Z,9.75
2022-11-30T00:36:51.610Z,12.75
2022-11-30T00:41:54.382Z,10.25
2022-11-30T00:46:57.141Z,10.75
2022-11-30T00:52:01.443Z,9.50
2022-11-30T00:57:04.284Z,11.75
2022-11-30T01:02:07.242Z,10.00
2022-11-30T01:07:11.424Z,8.00
2022-11-30T01:12:15.608Z,9.00
2022-11-30T01:17:18.895Z,11.50
2022-11-30T01:22:23.019Z,11.50
2022-11-30T01:27:25.815Z,10.25
2022-11-30T01:32:29.187Z,11.50
2022-11-30T01:37:33.583Z,10.75
2022-11-30T01:42:37.966Z,11.00
2022-11-30T01:47:44.260Z,10.25
2022-11-30T01:52:51.708Z,10.00
2022-11-30T01:58:00.084Z,8.75
2022-11-30T02:03:08.468Z,9.25
2022-11-30T02:08:13.019Z,10.25
2022-11-30T02:13:31.587Z,9.25
2022-11-30T02:18:47.848Z,11.00
2022-11-30T02:24:07.432Z,9.50
2022-11-30T02:29:17.561Z,8.00
2022-11-30T02:34:23.181Z,7.25
2022-11-30T02:39:26.200Z,10.00
2022-11-30T02:44:31.387Z,9.50
2022-11-30T02:49:39.371Z,7.25
2022-11-30T02:54:42.587Z,8.50
2022-11-30T02:59:46.885Z,7.25
2022-11-30T03:04:49.722Z,9.00
2022-11-30T03:09:52.560Z,11.00
2022-11-30T03:14:56.645Z,8.75
2022-11-30T03:19:59.438Z,10.00
2022-11-30T03:25:02.419Z,8.00
2022-11-30T03:30:08.215Z,7.50
2022-11-30T03:35:11.196Z,9.75
2022-11-30T03:40:14.250Z,10.25
2022-11-30T03:45:18.615Z,9.50
2022-11-30T03:50:21.407Z,9.50
2022-11-30T03:55:24.307Z,7.00
2022-11-30T04:00:28.509Z,9.75
2022-11-30T04:05:31.416Z,8.00
2022-11-30T04:10:34.355Z,8.75
2022-11-30T04:15:38.466Z,9.00
2022-11-30T04:20:41.962Z,8.75
2022-11-30T04:25:44.841Z,7.75
2022-11-30T04:30:49.321Z,8.25
2022-11-30T04:35:55.961Z,6.50
2022-11-30T04:40:58.768Z,9.50
2022-11-30T04:46:03.085Z,7.75
2022-11-30T04:51:08.229Z,7.50
2022-11-30T04:56:12.933Z,7.25
2022-11-30T05:01:17.523Z,8.25
2022-11-30T05:06:20.571Z,7.00
2022-11-30T05:11:23.346Z,9.50
2022-11-30T05:16:27.778Z,8.00
2022-11-30T05:21:30.680Z,7.00
2022-11-30T05:26:34.251Z,8.75
2022-11-30T05:31:39.788Z,8.25
2022-11-30T05:36:42.672Z,9.25
2022-11-30T05:41:45.540Z,7.50
2022-11-30T05:46:50.089Z,8.00
2022-11-30T05:51:52.960Z,8.00
2022-11-30T05:56:55.853Z,8.00
2022-11-30T06:02:00.067Z,6.50
2022-11-30T06:07:04.374Z,8.00
2022-11-30T06:12:07.847Z,11.00
2022-11-30T06:17:11.980Z,8.50
2022-11-30T06:22:14.797Z,7.25
2022-11-30T06:27:17.596Z,7.50
2022-11-30T06:32:21.737Z,8.00
2022-11-30T06:37:24.464Z,8.00
2022-11-30T06:42:27.239Z,7.50
2022-11-30T06:47:31.468Z,7.00
2022-11-30T06:52:34.368Z,7.75
2022-11-30T06:57:37.205Z,7.00
2022-11-30T07:02:41.647Z,9.00
2022-11-30T07:07:44.451Z,8.00
2022-11-30T07:12:47.283Z,7.00
2022-11-30T07:17:51.409Z,8.25
2022-11-30T07:22:56.441Z,6.75
2022-11-30T07:27:59.282Z,7.00
2022-11-30T07:33:03.549Z,5.75
2022-11-30T07:38:09.707Z,8.25
2022-11-30T07:43:12.755Z,6.00
2022-11-30T07:48:16.841Z,6.00
2022-11-30T07:53:19.804Z,8.00
2022-11-30T07:58:22.561Z,8.25
2022-11-30T08:03:26.656Z,9.00
2022-11-30T08:08:33.571Z,7.50
2022-11-30T08:13:36.397Z,7.25
2022-11-30T08:18:41.121Z,8.50
2022-11-30T08:23:46.074Z,7.50
2022-11-30T08:28:50.699Z,6.75
2022-11-30T08:33:58.414Z,6.75
2022-11-30T08:39:04.839Z,9.50
2022-11-30T08:44:08.016Z,8.00
2022-11-30T08:49:27.828Z,8.50
2022-11-30T08:54:30.669Z,7.00
2022-11-30T08:59:33.681Z,6.25
2022-11-30T09:04:37.832Z,8.00
2022-11-30T09:09:40.664Z,7.50
2022-11-30T09:14:45.085Z,7.25
2022-11-30T09:19:49.366Z,5.00
2022-11-30T09:24:52.324Z,7.75
2022-11-30T09:29:55.091Z,7.00
2022-11-30T09:34:59.345Z,6.50
2022-11-30T09:40:02.301Z,6.75
2022-11-30T09:45:12.985Z,7.25
2022-11-30T09:50:21.468Z,6.00
2022-11-30T09:55:29.673Z,8.00
2022-11-30T10:00:34.405Z,6.50
2022-11-30T10:05:47.836Z,7.00
2022-11-30T10:11:13.621Z,9.25
2022-11-30T10:16:32.065Z,12.50
2022-11-30T10:21:51.780Z,16.25
2022-11-30T10:26:56.189Z,17.00
2022-11-30T10:32:01.182Z,16.75
2022-11-30T10:37:13.553Z,23.50
2022-11-30T10:42:21.949Z,35.00
2022-11-30T10:47:31.038Z,32.20
2022-11-30T10:52:42.743Z,35.00
2022-11-30T10:57:47.967Z,33.00
2022-11-30T11:02:52.057Z,27.50
2022-11-30T11:08:05.741Z,33.00
2022-11-30T11:13:17.585Z,27.75
2022-11-30T11:18:24.083Z,28.00
2022-11-30T11:23:33.518Z,26.00
2022-11-30T11:28:38.210Z,26.25
2022-11-30T11:33:51.983Z,24.50
2022-11-30T11:38:57.533Z,25.50
2022-11-30T11:44:05.326Z,25.50
2022-11-30T11:49:20.217Z,23.75
2022-11-30T11:54:29.505Z,22.50
2022-11-30T11:59:41.770Z,24.00
2022-11-30T12:04:49.248Z,23.00
2022-11-30T12:10:21.860Z,23.00
2022-11-30T12:15:33.996Z,19.00
2022-11-30T12:20:51.724Z,24.25
2022-11-30T12:26:03.175Z,24.00
2022-11-30T12:31:13.805Z,20.50
2022-11-30T12:36:26.368Z,22.25
2022-11-30T12:41:42.983Z,22.75
2022-11-30T12:46:57.344Z,22.50
2022-11-30T12:52:07.711Z,23.00
2022-11-30T12:57:22.415Z,21.25
2022-11-30T13:02:54.110Z,20.75
2022-11-30T13:08:04.533Z,20.00
2022-11-30T13:13:15.457Z,21.50
2022-11-30T13:18:21.134Z,20.25
2022-11-30T13:23:35.881Z,17.75
2022-11-30T13:29:02.051Z,21.50
2022-11-30T13:34:04.877Z,18.50
2022-11-30T13:39:28.915Z,21.00
2022-11-30T13:44:35.138Z,21.25
2022-11-30T13:49:38.436Z,17.00
2022-11-30T13:54:43.907Z,17.75
2022-11-30T13:59:51.544Z,17.00
2022-11-30T14:04:54.367Z,17.00
2022-11-30T14:10:00.099Z,17.50
2022-11-30T14:15:25.363Z,17.25
2022-11-30T14:20:37.963Z,19.75
2022-11-30T14:25:46.836Z,18.25
2022-11-30T14:30:52.689Z,17.50
2022-11-30T14:47:30.062Z,18.75
2022-11-30T14:52:56.445Z,17.75
2022-11-30T14:58:13.220Z,16.50
2022-11-30T15:03:27.095Z,14.25
2022-11-30T15:08:36.210Z,16.25
2022-11-30T15:13:42.404Z,12.25
2022-11-30T15:18:46.619Z,15.00
2022-11-30T15:23:51.405Z,17.25
2022-11-30T15:28:59.135Z,18.75
2022-11-30T15:34:04.840Z,15.25
2022-11-30T15:39:09.632Z,14.00
2022-11-30T15:44:25.904Z,14.75
2022-11-30T15:49:32.151Z,15.50
2022-11-30T15:54:50.169Z,14.75
2022-11-30T16:00:09.865Z,14.75
2022-11-30T16:05:26.869Z,15.00
2022-11-30T16:10:33.826Z,13.25
2022-11-30T16:15:37.539Z,16.50
2022-11-30T16:20:43.437Z,14.25
2022-11-30T16:25:47.902Z,15.50
2022-11-30T16:30:51.282Z,13.75
2022-11-30T16:35:59.346Z,15.75
2022-11-30T16:41:15.124Z,15.25
2022-11-30T16:46:19.967Z,13.75
2022-11-30T16:51:27.233Z,14.75
2022-11-30T16:56:30.230Z,16.75
2022-11-30T17:01:36.649Z,17.00
2022-11-30T17:06:40.879Z,18.00
2022-11-30T17:11:45.432Z,16.75
2022-11-30T17:16:48.524Z,16.75
2022-11-30T17:21:52.813Z,15.25
2022-11-30T17:26:55.620Z,17.00
2022-11-30T17:31:58.385Z,20.00
2022-11-30T17:37:02.578Z,16.75
2022-11-30T17:42:05.546Z,17.25
2022-11-30T17:47:08.953Z,17.00
2022-11-30T17:52:13.104Z,18.00
2022-11-30T17:57:16.008Z,16.00
2022-11-30T18:02:18.828Z,16.00
2022-11-30T18:07:23.075Z,17.00
2022-11-30T18:12:25.913Z,16.00
2022-11-30T18:17:28.738Z,15.25
2022-11-30T18:22:33.011Z,17.00
2022-11-30T18:27:35.975Z,18.25
2022-11-30T18:32:38.831Z,16.50
2022-11-30T18:37:43.472Z,16.25
2022-11-30T18:42:48.897Z,18.50
2022-11-30T18:47:52.058Z,21.25
2022-11-30T18:52:56.623Z,19.00
2022-11-30T18:58:01.063Z,17.50
2022-11-30T19:03:04.018Z,18.25
2022-11-30T19:08:11.459Z,24.25
2022-11-30T19:13:14.207Z,20.50
2022-11-30T19:18:21.789Z,21.75
2022-11-30T19:23:27.888Z,19.25
2022-11-30T19:28:31.310Z,20.25
2022-11-30T19:33:36.484Z,19.00
2022-11-30T19:38:41.157Z,19.75
2022-11-30T19:43:49.401Z,20.50
2022-11-30T19:48:57.974Z,22.25
2022-11-30T19:54:02.640Z,22.50
2022-11-30T19:59:06.287Z,17.75
2022-11-30T20:04:09.344Z,19.75
2022-11-30T20:09:13.428Z,17.75
2022-11-30T20:14:17.319Z,17.50
2022-11-30T20:19:20.063Z,19.00
2022-11-30T20:24:24.201Z,18.00
2022-11-30T20:29:26.981Z,20.50
2022-11-30T20:34:34.320Z,17.25
2022-11-30T20:39:45.764Z,17.25
2022-11-30T20:44:49.921Z,17.00
2022-11-30T20:49:53.209Z,18.25
2022-11-30T20:54:57.524Z,20.00
2022-11-30T21:00:00.327Z,15.50
2022-11-30T21:05:03.282Z,19.75
2022-11-30T21:10:09.134Z,18.75
2022-11-30T21:15:12.276Z,15.00
2022-11-30T21:20:15.162Z,17.25
2022-11-30T21:25:19.777Z,20.00
2022-11-30T21:30:22.543Z,19.25
2022-11-30T21:35:25.410Z,19.00
2022-11-30T21:40:29.560Z,18.25
2022-11-30T21:45:32.344Z,20.00
2022-11-30T21:50:35.079Z,20.00
2022-11-30T21:55:39.361Z,19.75
2022-11-30T22:00:42.218Z,19.00
2022-11-30T22:05:45.025Z,18.25
2022-11-30T22:10:49.317Z,18.50
2022-11-30T22:15:58.530Z,22.00
2022-11-30T22:21:05.950Z,19.75
2022-11-30T22:26:15.067Z,15.00
2022-11-30T22:31:20.438Z,18.00
2022-11-30T22:36:25.567Z,18.00
2022-11-30T22:41:30.170Z,17.75
2022-11-30T22:46:35.202Z,17.50
2022-11-30T22:51:39.016Z,20.00
2022-11-30T22:56:43.267Z,18.50
2022-11-30T23:01:47.677Z,18.00
2022-11-30T23:06:51.630Z,16.25
2022-11-30T23:11:55.771Z,17.25
2022-11-30T23:16:58.539Z,18.50
2022-11-30T23:22:01.397Z,18.50
2022-11-30T23:27:05.517Z,18.25
2022-11-30T23:32:09.098Z,15.50
2022-11-30T23:37:11.885Z,17.00
2022-11-30T23:42:16.021Z,17.00
2022-11-30T23:47:18.909Z,14.25
2022-11-30T23:52:21.894Z,17.25
2022-11-30T23:57:26.049Z,16.50
